sensor_id;sensor_type;location;lat;lon;timestamp;pressure;altitude;pressure_sealevel;temperature;humidity
11912;BME280;6016;41.928;25.556;2023-12-28T00:01:50;100219.97;;;9.27;62.89
11912;BME280;6016;41.928;25.556;2023-12-28T00:04:17;100222.25;;;9.19;62.96
11912;BME280;6016;41.928;25.556;2023-12-28T00:06:46;100225.00;;;9.17;62.84
11912;BME280;6016;41.928;25.556;2023-12-28T00:09:13;100122.25;;;8.52;62.87
11912;BME280;6016;41.928;25.556;2023-12-28T00:11:40;100194.50;;;8.87;62.71
11912;BME280;6016;41.928;25.556;2023-12-28T00:14:07;100221.06;;;8.97;63.38
11912;BME280;6016;41.928;25.556;2023-12-28T00:16:34;100222.84;;;8.96;63.08
11912;BME280;6016;41.928;25.556;2023-12-28T00:19:02;100230.50;;;8.86;63.24
11912;BME280;6016;41.928;25.556;2023-12-28T00:21:30;100223.22;;;8.77;63.15
11912;BME280;6016;41.928;25.556;2023-12-28T00:23:58;100239.22;;;8.87;63.53
11912;BME280;6016;41.928;25.556;2023-12-28T00:26:25;100244.63;;;8.85;63.05
11912;BME280;6016;41.928;25.556;2023-12-28T00:28:52;100226.47;;;8.53;63.01
11912;BME280;6016;41.928;25.556;2023-12-28T00:31:19;100245.41;;;8.73;64.46
11912;BME280;6016;41.928;25.556;2023-12-28T00:33:46;100221.38;;;8.65;62.98
11912;BME280;6016;41.928;25.556;2023-12-28T00:36:15;100246.47;;;8.83;63.27
11912;BME280;6016;41.928;25.556;2023-12-28T00:38:42;100252.69;;;8.82;62.87
11912;BME280;6016;41.928;25.556;2023-12-28T00:41:10;100252.91;;;8.79;63.39
11912;BME280;6016;41.928;25.556;2023-12-28T00:43:37;100080.72;;;7.60;63.37
11912;BME280;6016;41.928;25.556;2023-12-28T00:46:04;100258.34;;;8.76;63.92
11912;BME280;6016;41.928;25.556;2023-12-28T00:48:31;100243.38;;;8.64;62.86
11912;BME280;6016;41.928;25.556;2023-12-28T00:50:58;100236.63;;;8.60;63.75
11912;BME280;6016;41.928;25.556;2023-12-28T00:53:25;100252.84;;;8.66;63.70
11912;BME280;6016;41.928;25.556;2023-12-28T00:55:52;100258.69;;;8.57;63.75
11912;BME280;6016;41.928;25.556;2023-12-28T00:58:21;100232.19;;;8.45;63.38
11912;BME280;6016;41.928;25.556;2023-12-28T01:00:48;100254.63;;;8.66;63.97
11912;BME280;6016;41.928;25.556;2023-12-28T01:03:18;100238.78;;;8.53;63.50
11912;BME280;6016;41.928;25.556;2023-12-28T01:05:45;100252.41;;;8.60;63.58
11912;BME280;6016;41.928;25.556;2023-12-28T01:08:16;100258.69;;;8.57;64.08
11912;BME280;6016;41.928;25.556;2023-12-28T01:10:43;100222.66;;;8.30;64.47
11912;BME280;6016;41.928;25.556;2023-12-28T01:13:10;100259.22;;;8.62;63.31
11912;BME280;6016;41.928;25.556;2023-12-28T01:15:37;100255.94;;;8.58;63.22
11912;BME280;6016;41.928;25.556;2023-12-28T01:18:04;100244.50;;;8.45;63.58
11912;BME280;6016;41.928;25.556;2023-12-28T01:20:32;100214.22;;;8.25;63.98
11912;BME280;6016;41.928;25.556;2023-12-28T01:23:00;100264.78;;;8.57;63.70
11912;BME280;6016;41.928;25.556;2023-12-28T01:25:27;100259.34;;;8.61;63.85
11912;BME280;6016;41.928;25.556;2023-12-28T01:27:54;100155.47;;;7.84;63.68
11912;BME280;6016;41.928;25.556;2023-12-28T01:30:21;100258.41;;;8.47;63.77
11912;BME280;6016;41.928;25.556;2023-12-28T01:32:50;100229.44;;;8.20;64.08
11912;BME280;6016;41.928;25.556;2023-12-28T01:35:17;100260.88;;;8.50;66.19
11912;BME280;6016;41.928;25.556;2023-12-28T01:37:44;100243.56;;;8.46;64.11
11912;BME280;6016;41.928;25.556;2023-12-28T01:40:11;100231.06;;;8.50;63.64
11912;BME280;6016;41.928;25.556;2023-12-28T01:42:38;100223.88;;;8.39;63.55
11912;BME280;6016;41.928;25.556;2023-12-28T01:45:06;100232.13;;;8.47;62.61
11912;BME280;6016;41.928;25.556;2023-12-28T01:47:34;100258.91;;;8.54;62.71
11912;BME280;6016;41.928;25.556;2023-12-28T01:50:03;100238.25;;;7.89;63.55
11912;BME280;6016;41.928;25.556;2023-12-28T01:52:32;100267.16;;;8.33;63.43
11912;BME280;6016;41.928;25.556;2023-12-28T01:54:59;100158.25;;;7.81;63.21
11912;BME280;6016;41.928;25.556;2023-12-28T01:57:27;100274.50;;;8.28;63.23
11912;BME280;6016;41.928;25.556;2023-12-28T01:59:54;100266.97;;;8.36;63.38
11912;BME280;6016;41.928;25.556;2023-12-28T02:02:22;100273.34;;;8.32;62.79
11912;BME280;6016;41.928;25.556;2023-12-28T02:04:49;100266.13;;;8.36;62.89
11912;BME280;6016;41.928;25.556;2023-12-28T02:07:18;100267.97;;;8.34;62.90
11912;BME280;6016;41.928;25.556;2023-12-28T02:09:47;100270.00;;;8.15;63.84
11912;BME280;6016;41.928;25.556;2023-12-28T02:12:14;100263.81;;;8.16;63.45
11912;BME280;6016;41.928;25.556;2023-12-28T02:14:41;100263.88;;;8.15;63.80
11912;BME280;6016;41.928;25.556;2023-12-28T02:17:13;100261.53;;;7.96;63.86
11912;BME280;6016;41.928;25.556;2023-12-28T02:19:45;100198.22;;;7.57;63.23
11912;BME280;6016;41.928;25.556;2023-12-28T02:22:14;100147.03;;;7.21;63.97
11912;BME280;6016;41.928;25.556;2023-12-28T02:24:58;100256.97;;;7.85;64.67
11912;BME280;6016;41.928;25.556;2023-12-28T02:27:26;100257.44;;;7.92;64.34
11912;BME280;6016;41.928;25.556;2023-12-28T02:29:53;100259.94;;;7.93;64.32
11912;BME280;6016;41.928;25.556;2023-12-28T02:32:24;100266.53;;;7.86;64.62
11912;BME280;6016;41.928;25.556;2023-12-28T02:34:58;100251.59;;;7.72;64.52
11912;BME280;6016;41.928;25.556;2023-12-28T02:37:28;100261.34;;;7.84;64.66
11912;BME280;6016;41.928;25.556;2023-12-28T02:39:58;100250.56;;;7.60;65.32
11912;BME280;6016;41.928;25.556;2023-12-28T02:42:25;100278.13;;;7.82;65.83
11912;BME280;6016;41.928;25.556;2023-12-28T02:44:52;100277.19;;;7.83;65.40
11912;BME280;6016;41.928;25.556;2023-12-28T02:47:19;100275.22;;;7.86;65.81
11912;BME280;6016;41.928;25.556;2023-12-28T02:49:46;100273.34;;;7.88;65.36
11912;BME280;6016;41.928;25.556;2023-12-28T02:52:13;100279.38;;;7.91;65.53
11912;BME280;6016;41.928;25.556;2023-12-28T02:54:40;100283.44;;;7.96;65.51
11912;BME280;6016;41.928;25.556;2023-12-28T02:57:08;100197.94;;;7.47;65.76
11912;BME280;6016;41.928;25.556;2023-12-28T02:59:35;100256.66;;;7.89;65.21
11912;BME280;6016;41.928;25.556;2023-12-28T03:02:02;100269.91;;;8.02;64.56
11912;BME280;6016;41.928;25.556;2023-12-28T03:04:29;100280.00;;;8.09;64.56
11912;BME280;6016;41.928;25.556;2023-12-28T03:06:57;100279.25;;;7.78;65.58
11912;BME280;6016;41.928;25.556;2023-12-28T03:09:24;100106.19;;;6.86;64.28
11912;BME280;6016;41.928;25.556;2023-12-28T03:11:51;100273.06;;;7.93;64.92
11912;BME280;6016;41.928;25.556;2023-12-28T03:14:19;100240.59;;;7.65;64.44
11912;BME280;6016;41.928;25.556;2023-12-28T03:16:47;100255.34;;;7.68;64.52
11912;BME280;6016;41.928;25.556;2023-12-28T03:19:14;100220.25;;;7.54;65.52
11912;BME280;6016;41.928;25.556;2023-12-28T03:21:41;100292.41;;;7.92;66.01
11912;BME280;6016;41.928;25.556;2023-12-28T03:24:08;100279.28;;;7.92;65.82
11912;BME280;6016;41.928;25.556;2023-12-28T03:26:38;100275.69;;;7.93;65.46
11912;BME280;6016;41.928;25.556;2023-12-28T03:29:05;100281.81;;;7.94;64.83
11912;BME280;6016;41.928;25.556;2023-12-28T03:31:38;100285.28;;;7.94;65.53
11912;BME280;6016;41.928;25.556;2023-12-28T03:34:05;100284.63;;;7.91;65.64
11912;BME280;6016;41.928;25.556;2023-12-28T03:36:32;100292.94;;;7.68;64.93
11912;BME280;6016;41.928;25.556;2023-12-28T03:38:59;100276.44;;;7.66;63.67
11912;BME280;6016;41.928;25.556;2023-12-28T03:41:26;100220.06;;;7.43;64.58
11912;BME280;6016;41.928;25.556;2023-12-28T03:43:53;100298.78;;;7.88;64.04
11912;BME280;6016;41.928;25.556;2023-12-28T03:46:19;100291.56;;;7.92;63.36
11912;BME280;6016;41.928;25.556;2023-12-28T03:48:48;100253.47;;;7.70;62.96
11912;BME280;6016;41.928;25.556;2023-12-28T03:51:15;100266.94;;;7.49;63.34
11912;BME280;6016;41.928;25.556;2023-12-28T03:53:42;100294.00;;;7.80;67.22
11912;BME280;6016;41.928;25.556;2023-12-28T03:56:18;100289.38;;;7.69;65.12
11912;BME280;6016;41.928;25.556;2023-12-28T03:58:45;100267.06;;;7.77;69.10
11912;BME280;6016;41.928;25.556;2023-12-28T04:01:12;100280.41;;;8.02;69.28
11912;BME280;6016;41.928;25.556;2023-12-28T04:03:39;100279.84;;;8.12;68.95
11912;BME280;6016;41.928;25.556;2023-12-28T04:06:08;100282.66;;;8.23;67.65
11912;BME280;6016;41.928;25.556;2023-12-28T04:08:35;100273.91;;;8.23;65.55
11912;BME280;6016;41.928;25.556;2023-12-28T04:11:02;100279.75;;;8.28;64.54
11912;BME280;6016;41.928;25.556;2023-12-28T04:13:29;100173.56;;;7.74;63.12
11912;BME280;6016;41.928;25.556;2023-12-28T04:15:56;100279.44;;;8.33;62.03
11912;BME280;6016;41.928;25.556;2023-12-28T04:18:23;100282.19;;;8.31;61.73
11912;BME280;6016;41.928;25.556;2023-12-28T04:20:50;100287.81;;;8.25;61.67
11912;BME280;6016;41.928;25.556;2023-12-28T04:23:18;100282.47;;;8.12;61.73
11912;BME280;6016;41.928;25.556;2023-12-28T04:25:45;100289.16;;;8.03;62.16
11912;BME280;6016;41.928;25.556;2023-12-28T04:28:13;100217.25;;;7.46;62.35
11912;BME280;6016;41.928;25.556;2023-12-28T04:30:40;100288.91;;;7.77;62.47
11912;BME280;6016;41.928;25.556;2023-12-28T04:33:07;100294.72;;;7.68;64.03
11912;BME280;6016;41.928;25.556;2023-12-28T04:35:34;100286.50;;;7.43;63.72
11912;BME280;6016;41.928;25.556;2023-12-28T04:38:01;100281.94;;;7.47;63.52
11912;BME280;6016;41.928;25.556;2023-12-28T04:40:29;100295.28;;;7.58;63.63
11912;BME280;6016;41.928;25.556;2023-12-28T04:42:56;100288.41;;;7.56;63.84
11912;BME280;6016;41.928;25.556;2023-12-28T04:45:23;100288.53;;;7.54;64.12
11912;BME280;6016;41.928;25.556;2023-12-28T04:47:50;100299.78;;;7.56;64.18
11912;BME280;6016;41.928;25.556;2023-12-28T04:50:17;100235.63;;;7.15;63.46
11912;BME280;6016;41.928;25.556;2023-12-28T04:52:44;100290.81;;;7.44;64.20
11912;BME280;6016;41.928;25.556;2023-12-28T04:55:11;100294.66;;;7.39;64.92
11912;BME280;6016;41.928;25.556;2023-12-28T04:57:40;100287.81;;;7.36;64.95
11912;BME280;6016;41.928;25.556;2023-12-28T05:00:08;100287.97;;;7.33;64.17
11912;BME280;6016;41.928;25.556;2023-12-28T05:02:35;100234.84;;;6.99;65.40
11912;BME280;6016;41.928;25.556;2023-12-28T05:05:03;100272.56;;;7.12;64.72
11912;BME280;6016;41.928;25.556;2023-12-28T05:07:30;100301.53;;;7.25;64.71
11912;BME280;6016;41.928;25.556;2023-12-28T05:09:57;100324.22;;;7.26;65.18
11912;BME280;6016;41.928;25.556;2023-12-28T05:12:24;100296.25;;;7.11;64.95
11912;BME280;6016;41.928;25.556;2023-12-28T05:14:52;100263.03;;;6.79;66.37
11912;BME280;6016;41.928;25.556;2023-12-28T05:17:19;100305.47;;;7.18;65.41
11912;BME280;6016;41.928;25.556;2023-12-28T05:19:46;100305.66;;;7.15;65.37
11912;BME280;6016;41.928;25.556;2023-12-28T05:22:13;100304.78;;;7.14;64.90
11912;BME280;6016;41.928;25.556;2023-12-28T05:24:40;100304.56;;;6.87;65.99
11912;BME280;6016;41.928;25.556;2023-12-28T05:27:07;100305.31;;;7.05;65.42
11912;BME280;6016;41.928;25.556;2023-12-28T05:29:34;100297.66;;;7.16;65.33
11912;BME280;6016;41.928;25.556;2023-12-28T05:32:03;100303.78;;;7.17;65.95
11912;BME280;6016;41.928;25.556;2023-12-28T05:34:30;100300.16;;;7.03;64.90
11912;BME280;6016;41.928;25.556;2023-12-28T05:36:57;100304.97;;;6.95;65.91
11912;BME280;6016;41.928;25.556;2023-12-28T05:39:24;100306.75;;;6.95;66.37
11912;BME280;6016;41.928;25.556;2023-12-28T05:41:51;100312.50;;;7.01;66.64
11912;BME280;6016;41.928;25.556;2023-12-28T05:44:18;100313.28;;;7.03;65.71
11912;BME280;6016;41.928;25.556;2023-12-28T05:46:46;100286.13;;;6.88;65.89
11912;BME280;6016;41.928;25.556;2023-12-28T05:49:14;100298.97;;;7.09;66.07
11912;BME280;6016;41.928;25.556;2023-12-28T05:51:41;100300.66;;;7.10;65.04
11912;BME280;6016;41.928;25.556;2023-12-28T05:54:08;100298.19;;;7.07;64.85
11912;BME280;6016;41.928;25.556;2023-12-28T05:56:36;100304.03;;;7.12;66.48
11912;BME280;6016;41.928;25.556;2023-12-28T05:59:03;100305.34;;;7.20;65.54
11912;BME280;6016;41.928;25.556;2023-12-28T06:01:30;100304.94;;;7.27;65.13
11912;BME280;6016;41.928;25.556;2023-12-28T06:03:56;100305.84;;;7.26;63.99
11912;BME280;6016;41.928;25.556;2023-12-28T06:06:25;100330.34;;;7.11;63.95
11912;BME280;6016;41.928;25.556;2023-12-28T06:08:52;100299.31;;;6.87;64.16
11912;BME280;6016;41.928;25.556;2023-12-28T06:11:20;100324.00;;;7.15;63.96
11912;BME280;6016;41.928;25.556;2023-12-28T06:13:47;100317.97;;;7.13;64.11
11912;BME280;6016;41.928;25.556;2023-12-28T06:16:14;100320.72;;;7.11;64.83
11912;BME280;6016;41.928;25.556;2023-12-28T06:18:41;100129.28;;;6.02;64.45
11912;BME280;6016;41.928;25.556;2023-12-28T06:21:08;100319.91;;;7.25;65.01
11912;BME280;6016;41.928;25.556;2023-12-28T06:23:36;100326.59;;;7.31;65.12
11912;BME280;6016;41.928;25.556;2023-12-28T06:26:06;100326.25;;;7.37;64.97
11912;BME280;6016;41.928;25.556;2023-12-28T06:28:33;100293.09;;;7.20;64.60
11912;BME280;6016;41.928;25.556;2023-12-28T06:31:01;100064.63;;;6.94;61.62
11912;BME280;6016;41.928;25.556;2023-12-28T06:33:30;100311.06;;;9.29;57.95
11912;BME280;6016;41.928;25.556;2023-12-28T06:35:57;100320.97;;;9.26;58.02
11912;BME280;6016;41.928;25.556;2023-12-28T06:38:24;100331.44;;;8.85;59.50
11912;BME280;6016;41.928;25.556;2023-12-28T06:40:52;100326.50;;;8.52;60.96
11912;BME280;6016;41.928;25.556;2023-12-28T06:43:19;100331.06;;;8.34;61.79
11912;BME280;6016;41.928;25.556;2023-12-28T06:45:46;100335.22;;;8.23;62.68
11912;BME280;6016;41.928;25.556;2023-12-28T06:48:13;100330.44;;;8.15;62.08
11912;BME280;6016;41.928;25.556;2023-12-28T06:50:40;100336.91;;;8.10;62.16
11912;BME280;6016;41.928;25.556;2023-12-28T06:53:07;100158.97;;;6.96;62.49
11912;BME280;6016;41.928;25.556;2023-12-28T06:55:34;100334.09;;;7.98;63.09
11912;BME280;6016;41.928;25.556;2023-12-28T06:58:03;100344.28;;;7.88;62.70
11912;BME280;6016;41.928;25.556;2023-12-28T07:00:31;100298.06;;;7.41;63.22
11912;BME280;6016;41.928;25.556;2023-12-28T07:02:58;100342.84;;;7.68;64.17
11912;BME280;6016;41.928;25.556;2023-12-28T07:05:25;100347.81;;;7.73;64.18
11912;BME280;6016;41.928;25.556;2023-12-28T07:07:52;100350.44;;;7.73;64.87
11912;BME280;6016;41.928;25.556;2023-12-28T07:10:19;100348.50;;;7.77;64.68
11912;BME280;6016;41.928;25.556;2023-12-28T07:12:46;100296.22;;;7.57;64.84
11912;BME280;6016;41.928;25.556;2023-12-28T07:15:15;100339.66;;;7.78;67.75
11912;BME280;6016;41.928;25.556;2023-12-28T07:17:42;100336.69;;;7.84;68.53
11912;BME280;6016;41.928;25.556;2023-12-28T07:20:09;100347.56;;;7.92;68.40
11912;BME280;6016;41.928;25.556;2023-12-28T07:22:37;100350.88;;;8.10;69.53
11912;BME280;6016;41.928;25.556;2023-12-28T07:25:05;100351.28;;;8.19;67.11
11912;BME280;6016;41.928;25.556;2023-12-28T07:27:33;100357.19;;;8.37;66.56
11912;BME280;6016;41.928;25.556;2023-12-28T07:30:00;100371.38;;;8.34;64.67
11912;BME280;6016;41.928;25.556;2023-12-28T07:32:30;100372.34;;;7.88;64.55
11912;BME280;6016;41.928;25.556;2023-12-28T07:34:57;100339.75;;;7.45;65.06
11912;BME280;6016;41.928;25.556;2023-12-28T07:37:24;100353.25;;;7.39;65.23
11912;BME280;6016;41.928;25.556;2023-12-28T07:39:51;100295.75;;;7.04;66.73
11912;BME280;6016;41.928;25.556;2023-12-28T07:42:18;100239.00;;;6.87;67.72
11912;BME280;6016;41.928;25.556;2023-12-28T07:44:45;100234.13;;;7.11;68.24
11912;BME280;6016;41.928;25.556;2023-12-28T07:47:12;100301.78;;;7.82;68.44
11912;BME280;6016;41.928;25.556;2023-12-28T07:49:42;100350.81;;;8.26;65.93
11912;BME280;6016;41.928;25.556;2023-12-28T07:52:09;100128.06;;;7.01;64.98
11912;BME280;6016;41.928;25.556;2023-12-28T07:54:36;100294.69;;;8.13;64.35
11912;BME280;6016;41.928;25.556;2023-12-28T07:57:03;100326.94;;;8.29;64.81
11912;BME280;6016;41.928;25.556;2023-12-28T07:59:30;100367.16;;;8.75;65.21
11912;BME280;6016;41.928;25.556;2023-12-28T08:01:57;100274.00;;;8.36;65.41
11912;BME280;6016;41.928;25.556;2023-12-28T08:04:25;100285.78;;;8.72;64.01
11912;BME280;6016;41.928;25.556;2023-12-28T08:06:53;100071.66;;;7.52;63.94
11912;BME280;6016;41.928;25.556;2023-12-28T08:09:20;100120.44;;;7.98;63.67
11912;BME280;6016;41.928;25.556;2023-12-28T08:11:47;100371.13;;;9.78;62.95
11912;BME280;6016;41.928;25.556;2023-12-28T08:14:15;100242.94;;;9.25;62.47
11912;BME280;6016;41.928;25.556;2023-12-28T08:16:42;100258.13;;;9.47;61.90
11912;BME280;6016;41.928;25.556;2023-12-28T08:19:09;100292.19;;;9.89;61.98
11912;BME280;6016;41.928;25.556;2023-12-28T08:21:36;100099.97;;;9.99;57.70
11912;BME280;6016;41.928;25.556;2023-12-28T08:24:05;100334.59;;;11.95;55.80
11912;BME280;6016;41.928;25.556;2023-12-28T08:26:32;100267.34;;;11.52;56.19
11912;BME280;6016;41.928;25.556;2023-12-28T08:29:00;100365.91;;;12.13;56.57
11912;BME280;6016;41.928;25.556;2023-12-28T08:31:27;100218.59;;;11.45;56.61
11912;BME280;6016;41.928;25.556;2023-12-28T08:33:55;100370.16;;;12.50;55.94
11912;BME280;6016;41.928;25.556;2023-12-28T08:36:22;100227.16;;;11.94;55.58
11912;BME280;6016;41.928;25.556;2023-12-28T08:38:49;100266.59;;;12.32;55.13
11912;BME280;6016;41.928;25.556;2023-12-28T08:41:22;100213.97;;;12.17;55.24
11912;BME280;6016;41.928;25.556;2023-12-28T08:43:49;100349.03;;;13.05;54.60
11912;BME280;6016;41.928;25.556;2023-12-28T08:46:17;100097.66;;;11.60;53.87
11912;BME280;6016;41.928;25.556;2023-12-28T08:48:44;100283.75;;;12.72;54.10
11912;BME280;6016;41.928;25.556;2023-12-28T08:51:12;100170.22;;;11.90;54.43
11912;BME280;6016;41.928;25.556;2023-12-28T08:53:40;100246.75;;;12.49;53.88
11912;BME280;6016;41.928;25.556;2023-12-28T08:56:16;100302.81;;;12.87;54.45
11912;BME280;6016;41.928;25.556;2023-12-28T08:58:45;100085.19;;;11.51;54.59
11912;BME280;6016;41.928;25.556;2023-12-28T09:01:17;100324.59;;;13.02;54.44
11912;BME280;6016;41.928;25.556;2023-12-28T09:03:45;100326.38;;;13.01;53.81
11912;BME280;6016;41.928;25.556;2023-12-28T09:06:12;100196.03;;;12.21;54.46
11912;BME280;6016;41.928;25.556;2023-12-28T09:08:41;100199.25;;;12.24;53.73
11912;BME280;6016;41.928;25.556;2023-12-28T09:11:10;100269.06;;;12.68;54.85
11912;BME280;6016;41.928;25.556;2023-12-28T09:13:38;100075.94;;;11.57;55.08
11912;BME280;6016;41.928;25.556;2023-12-28T09:16:08;100144.84;;;11.99;54.67
11912;BME280;6016;41.928;25.556;2023-12-28T09:18:36;100198.28;;;12.37;54.24
11912;BME280;6016;41.928;25.556;2023-12-28T09:21:04;100183.28;;;12.26;53.22
11912;BME280;6016;41.928;25.556;2023-12-28T09:23:32;100020.94;;;11.39;53.77
11912;BME280;6016;41.928;25.556;2023-12-28T09:26:00;99917.78;;;10.85;53.66
11912;BME280;6016;41.928;25.556;2023-12-28T09:28:29;100012.38;;;11.47;53.55
11912;BME280;6016;41.928;25.556;2023-12-28T09:30:56;100044.22;;;11.57;53.93
11912;BME280;6016;41.928;25.556;2023-12-28T09:33:25;99997.84;;;11.52;53.56
11912;BME280;6016;41.928;25.556;2023-12-28T09:35:52;100024.63;;;11.59;53.44
11912;BME280;6016;41.928;25.556;2023-12-28T09:38:20;99969.78;;;11.40;52.91
11912;BME280;6016;41.928;25.556;2023-12-28T09:40:52;100171.81;;;12.70;52.94
11912;BME280;6016;41.928;25.556;2023-12-28T09:43:22;99998.72;;;11.53;51.33
11912;BME280;6016;41.928;25.556;2023-12-28T09:45:51;100247.00;;;13.11;53.36
11912;BME280;6016;41.928;25.556;2023-12-28T09:48:19;100232.53;;;12.94;52.54
11912;BME280;6016;41.928;25.556;2023-12-28T09:50:51;100168.63;;;12.66;52.42
11912;BME280;6016;41.928;25.556;2023-12-28T09:53:19;100245.19;;;13.12;52.23
11912;BME280;6016;41.928;25.556;2023-12-28T09:55:48;100236.47;;;13.21;52.89
11912;BME280;6016;41.928;25.556;2023-12-28T09:58:18;100234.03;;;13.29;52.33
11912;BME280;6016;41.928;25.556;2023-12-28T10:00:46;100194.34;;;13.18;52.09
11912;BME280;6016;41.928;25.556;2023-12-28T10:03:14;99947.38;;;11.67;52.08
11912;BME280;6016;41.928;25.556;2023-12-28T10:05:42;99974.94;;;11.86;52.18
11912;BME280;6016;41.928;25.556;2023-12-28T10:08:11;100232.13;;;13.53;51.47
11912;BME280;6016;41.928;25.556;2023-12-28T10:10:39;100108.06;;;12.73;52.15
11912;BME280;6016;41.928;25.556;2023-12-28T10:13:06;100236.06;;;13.58;51.99
11912;BME280;6016;41.928;25.556;2023-12-28T10:15:35;100221.44;;;13.64;51.98
11912;BME280;6016;41.928;25.556;2023-12-28T10:18:03;100171.69;;;13.46;51.23
11912;BME280;6016;41.928;25.556;2023-12-28T10:20:31;100230.88;;;13.78;51.63
11912;BME280;6016;41.928;25.556;2023-12-28T10:22:58;99933.44;;;12.19;52.25
11912;BME280;6016;41.928;25.556;2023-12-28T10:25:28;100192.53;;;14.02;50.13
11912;BME280;6016;41.928;25.556;2023-12-28T10:27:55;100090.28;;;13.68;51.10
11912;BME280;6016;41.928;25.556;2023-12-28T10:30:23;99947.38;;;13.04;48.58
11912;BME280;6016;41.928;25.556;2023-12-28T10:32:50;99922.00;;;13.02;48.66
11912;BME280;6016;41.928;25.556;2023-12-28T10:35:17;100052.53;;;14.05;49.45
11912;BME280;6016;41.928;25.556;2023-12-28T10:37:45;100170.59;;;14.90;48.04
11912;BME280;6016;41.928;25.556;2023-12-28T10:40:14;99945.31;;;13.59;48.29
11912;BME280;6016;41.928;25.556;2023-12-28T10:42:49;100148.09;;;14.94;47.82
11912;BME280;6016;41.928;25.556;2023-12-28T10:45:19;99854.13;;;13.11;48.83
11912;BME280;6016;41.928;25.556;2023-12-28T10:47:54;99898.41;;;13.49;47.27
11912;BME280;6016;41.928;25.556;2023-12-28T10:50:27;100056.69;;;14.67;47.80
11912;BME280;6016;41.928;25.556;2023-12-28T10:52:56;100144.13;;;15.28;46.61
11912;BME280;6016;41.928;25.556;2023-12-28T10:55:34;100148.44;;;15.29;48.11
11912;BME280;6016;41.928;25.556;2023-12-28T10:58:10;100054.88;;;14.77;46.77
11912;BME280;6016;41.928;25.556;2023-12-28T11:00:40;100140.78;;;15.26;46.45
11912;BME280;6016;41.928;25.556;2023-12-28T11:03:10;100012.69;;;14.45;47.85
11912;BME280;6016;41.928;25.556;2023-12-28T11:05:39;100126.53;;;15.07;46.85
11912;BME280;6016;41.928;25.556;2023-12-28T11:08:09;99940.28;;;13.85;47.57
11912;BME280;6016;41.928;25.556;2023-12-28T11:10:38;100031.28;;;14.35;47.47
11912;BME280;6016;41.928;25.556;2023-12-28T11:13:05;100111.44;;;14.98;48.48
11912;BME280;6016;41.928;25.556;2023-12-28T11:15:35;100063.53;;;14.70;48.64
11912;BME280;6016;41.928;25.556;2023-12-28T11:18:03;100057.66;;;14.56;48.71
11912;BME280;6016;41.928;25.556;2023-12-28T11:20:30;99986.31;;;14.24;49.70
11912;BME280;6016;41.928;25.556;2023-12-28T11:22:58;99981.03;;;14.14;48.34
11912;BME280;6016;41.928;25.556;2023-12-28T11:25:31;100021.25;;;14.39;50.53
11912;BME280;6016;41.928;25.556;2023-12-28T11:28:00;99931.78;;;13.91;49.00
11912;BME280;6016;41.928;25.556;2023-12-28T11:30:27;100047.34;;;14.53;49.04
11912;BME280;6016;41.928;25.556;2023-12-28T11:32:57;100028.56;;;14.84;49.01
11912;BME280;6016;41.928;25.556;2023-12-28T11:35:33;99943.28;;;14.40;49.89
11912;BME280;6016;41.928;25.556;2023-12-28T11:38:01;100065.34;;;15.27;49.46
11912;BME280;6016;41.928;25.556;2023-12-28T11:40:39;100052.19;;;15.25;49.26
11912;BME280;6016;41.928;25.556;2023-12-28T11:43:15;100030.75;;;15.09;47.18
11912;BME280;6016;41.928;25.556;2023-12-28T11:45:48;100063.19;;;15.40;50.19
11912;BME280;6016;41.928;25.556;2023-12-28T11:48:27;100034.25;;;15.37;50.21
11912;BME280;6016;41.928;25.556;2023-12-28T11:50:56;100022.03;;;15.44;49.09
11912;BME280;6016;41.928;25.556;2023-12-28T11:53:24;100033.38;;;15.65;47.74
11912;BME280;6016;41.928;25.556;2023-12-28T11:55:51;100053.91;;;15.72;47.58
11912;BME280;6016;41.928;25.556;2023-12-28T11:58:18;99949.84;;;15.21;47.75
11912;BME280;6016;41.928;25.556;2023-12-28T12:00:47;100044.72;;;15.95;47.47
11912;BME280;6016;41.928;25.556;2023-12-28T12:03:14;99944.78;;;15.46;47.86
11912;BME280;6016;41.928;25.556;2023-12-28T12:05:42;100032.88;;;16.07;47.07
11912;BME280;6016;41.928;25.556;2023-12-28T12:08:10;100006.78;;;15.93;46.35
11912;BME280;6016;41.928;25.556;2023-12-28T12:10:39;99989.66;;;15.95;47.54
11912;BME280;6016;41.928;25.556;2023-12-28T12:13:07;100027.66;;;16.24;47.57
11912;BME280;6016;41.928;25.556;2023-12-28T12:15:34;100030.13;;;16.17;47.17
11912;BME280;6016;41.928;25.556;2023-12-28T12:18:02;99924.97;;;15.58;47.44
11912;BME280;6016;41.928;25.556;2023-12-28T12:20:30;99943.88;;;15.92;46.75
11912;BME280;6016;41.928;25.556;2023-12-28T12:22:59;99954.75;;;15.98;45.80
11912;BME280;6016;41.928;25.556;2023-12-28T12:25:29;100011.16;;;16.38;46.61
11912;BME280;6016;41.928;25.556;2023-12-28T12:27:56;100001.38;;;16.47;47.13
11912;BME280;6016;41.928;25.556;2023-12-28T12:30:23;99885.88;;;15.77;46.64
11912;BME280;6016;41.928;25.556;2023-12-28T12:32:50;100025.31;;;16.65;46.49
11912;BME280;6016;41.928;25.556;2023-12-28T12:35:17;100007.91;;;16.53;46.49
11912;BME280;6016;41.928;25.556;2023-12-28T12:37:47;100038.88;;;16.54;47.10
11912;BME280;6016;41.928;25.556;2023-12-28T12:40:18;100005.19;;;16.71;46.49
11912;BME280;6016;41.928;25.556;2023-12-28T12:42:52;99997.47;;;16.59;46.10
11912;BME280;6016;41.928;25.556;2023-12-28T12:45:20;100010.06;;;16.76;46.55
11912;BME280;6016;41.928;25.556;2023-12-28T12:47:49;100023.13;;;16.60;46.96
11912;BME280;6016;41.928;25.556;2023-12-28T12:50:16;99877.22;;;15.93;46.88
11912;BME280;6016;41.928;25.556;2023-12-28T12:52:44;100010.38;;;16.72;46.53
11912;BME280;6016;41.928;25.556;2023-12-28T12:55:11;99818.06;;;15.55;46.93
11912;BME280;6016;41.928;25.556;2023-12-28T12:57:40;99868.16;;;15.86;46.93
11912;BME280;6016;41.928;25.556;2023-12-28T13:00:09;99935.81;;;16.20;47.20
11912;BME280;6016;41.928;25.556;2023-12-28T13:02:37;99649.78;;;14.37;47.26